Time;durP1;ratioP1;P1;durP2;ratioP2;P2;SDS_P1;SDS_P2;PMS_P1;PMS_P2;Temp;Humidity;BMP_temperature;BMP_pressure;BME280_temperature;BME280_humidity;BME280_pressure;Samples;Min_cycle;Max_cycle;Signal;HPM_P1;HPM_P2
2022/05/21 00:01:10;;;;;;;1999.90;999.90;;;;;;;13.14;86.24;99899.91;8314464;28;20056;-75
2022/05/21 00:05:12;;;;;;;1999.90;999.90;;;;;;;12.99;86.44;99902.59;8296398;28;20049;-75
2022/05/21 00:09:13;;;;;;;1999.90;999.90;;;;;;;12.86;87.18;99907.00;8313904;28;20044;-75
2022/05/21 00:13:15;;;;;;;1999.90;999.90;;;;;;;12.71;87.47;99910.53;8310904;28;20433;-75
2022/05/21 00:17:16;;;;;;;1999.90;999.90;;;;;;;12.66;87.77;99914.94;8308543;28;20087;-75
2022/05/21 00:21:18;;;;;;;1999.90;999.90;;;;;;;12.54;88.38;99908.88;8339365;28;20045;-75
2022/05/21 00:25:20;;;;;;;1999.90;999.90;;;;;;;12.50;88.45;99910.66;8315348;28;20036;-75
2022/05/21 00:29:23;;;;;;;1999.90;999.90;;;;;;;12.44;88.75;99905.47;8334013;28;20423;-75
2022/05/21 00:33:27;;;;;;;1999.90;999.90;;;;;;;12.37;88.94;99911.56;8290298;28;20046;-75
2022/05/21 00:37:28;;;;;;;1999.90;999.90;;;;;;;12.28;88.93;99914.19;8336297;28;20045;-75
2022/05/21 00:41:31;;;;;;;1999.90;999.90;;;;;;;12.20;88.91;99915.94;8331236;28;20065;-75
2022/05/21 00:45:33;;;;;;;1999.90;999.90;;;;;;;12.12;89.43;99922.91;8313251;28;20504;-75
2022/05/21 00:49:36;;;;;;;1999.90;999.90;;;;;;;12.07;89.72;99925.53;8339409;28;20413;-74
2022/05/21 00:53:39;;;;;;;1999.90;999.90;;;;;;;12.01;89.80;99922.94;8330725;28;20344;-75
2022/05/21 00:57:44;;;;;;;1999.90;999.90;;;;;;;11.88;89.50;99929.91;8312122;28;20141;-75
2022/05/21 01:01:52;;;;;;;1999.90;999.90;;;;;;;11.78;90.11;99931.63;8314972;28;20509;-75
2022/05/21 01:05:55;;;;;;;1999.90;999.90;;;;;;;11.76;89.92;99935.06;8308345;28;20047;-75
2022/05/21 01:09:59;;;;;;;1999.90;999.90;;;;;;;11.70;90.18;99935.97;8334107;28;20087;-74
2022/05/21 01:14:02;;;;;;;1999.90;999.90;;;;;;;11.65;90.14;99940.28;8337713;28;20468;-75
2022/05/21 01:18:06;;;;;;;1999.90;999.90;;;;;;;11.56;89.74;99942.03;8328871;28;20454;-74
2022/05/21 01:22:09;;;;;;;1999.90;999.90;;;;;;;11.55;90.17;99942.88;8335435;28;20049;-75
2022/05/21 01:26:19;;;;;;;1999.90;999.90;;;;;;;11.45;90.01;99942.88;8311276;28;20500;-75
2022/05/21 01:30:32;;;;;;;1999.90;999.90;;;;;;;11.42;90.29;99948.06;8312017;28;20203;-75
2022/05/21 01:34:34;;;;;;;1999.90;999.90;;;;;;;11.38;89.99;99955.88;8286738;28;20049;-75
2022/05/21 01:38:37;;;;;;;1999.90;999.90;;;;;;;11.29;89.99;99953.25;8302843;28;20074;-75
2022/05/21 01:42:39;;;;;;;1999.90;999.90;;;;;;;11.17;90.06;99962.78;8289995;28;20133;-74
2022/05/21 01:46:41;;;;;;;1999.90;999.90;;;;;;;11.13;89.94;99963.63;8286578;28;20099;-75
2022/05/21 01:50:43;;;;;;;1999.90;999.90;;;;;;;11.14;90.67;99962.78;8298817;28;20051;-75
2022/05/21 01:54:44;;;;;;;1999.90;999.90;;;;;;;11.10;90.35;99958.41;8300425;28;20056;-75
2022/05/21 01:58:46;;;;;;;1999.90;999.90;;;;;;;11.04;90.64;99971.38;8297466;28;20056;-75
2022/05/21 02:02:47;;;;;;;1999.90;999.90;;;;;;;11.01;90.71;99963.59;8301199;28;20423;-75
2022/05/21 02:06:49;;;;;;;1999.90;999.90;;;;;;;11.01;91.11;99967.91;8292062;28;20053;-75
2022/05/21 02:10:52;;;;;;;1999.90;999.90;;;;;;;10.97;91.53;99971.38;8272451;28;20042;-75
2022/05/21 02:14:57;;;;;;;1999.90;999.90;;;;;;;10.91;91.25;99972.19;8256494;28;20065;-75
2022/05/21 02:19:01;;;;;;;1999.90;999.90;;;;;;;10.85;91.24;99964.41;8320879;28;20361;-75
2022/05/21 02:23:02;;;;;;;1999.90;999.90;;;;;;;10.86;91.52;99968.72;8318906;28;20141;-75
2022/05/21 02:27:07;;;;;;;1999.90;999.90;;;;;;;10.83;91.70;99964.41;8315367;28;20078;-75
2022/05/21 02:31:08;;;;;;;1999.90;999.90;;;;;;;10.81;91.82;99971.31;8301234;28;20057;-75
2022/05/21 02:35:11;;;;;;;1999.90;999.90;;;;;;;10.73;90.99;99979.91;8291578;28;20137;-74
2022/05/21 02:39:25;;;;;;;1999.90;999.90;;;;;;;10.72;91.25;99980.78;8253325;28;20083;-75
2022/05/21 02:43:29;;;;;;;1999.90;999.90;;;;;;;10.66;90.96;99983.38;8283714;28;20041;-75
2022/05/21 02:47:31;;;;;;;1999.90;999.90;;;;;;;10.61;90.93;99985.09;8255342;28;20045;-75
2022/05/21 02:51:32;;;;;;;1999.90;999.90;;;;;;;10.50;90.77;99983.28;8293344;28;20050;-75
2022/05/21 02:55:34;;;;;;;1999.90;999.90;;;;;;;10.46;90.92;99988.47;8292955;28;20587;-75
2022/05/21 02:59:37;;;;;;;1999.90;999.90;;;;;;;10.40;90.78;99989.28;8277231;28;20033;-76
2022/05/21 03:03:38;;;;;;;1999.90;999.90;;;;;;;10.36;91.24;99986.66;8272427;28;20130;-75
2022/05/21 03:07:42;;;;;;;1999.90;999.90;;;;;;;10.34;91.46;99984.06;8254348;28;20038;-75
2022/05/21 03:11:44;;;;;;;1999.90;999.90;;;;;;;10.34;91.23;99985.78;8256450;28;20128;-75
2022/05/21 03:15:46;;;;;;;1999.90;999.90;;;;;;;10.26;91.94;99984.03;8246597;28;20105;-76
2022/05/21 03:19:47;;;;;;;1999.90;999.90;;;;;;;10.26;92.02;99975.38;8275673;28;20767;-75
2022/05/21 03:23:49;;;;;;;1999.90;999.90;;;;;;;10.22;91.60;99974.44;8272049;28;20084;-76
2022/05/21 03:27:51;;;;;;;1999.90;999.90;;;;;;;10.26;92.00;99988.34;8271985;28;20703;-75
2022/05/21 03:31:54;;;;;;;1999.90;999.90;;;;;;;10.22;91.76;99990.03;8307082;28;20322;-76
2022/05/21 03:35:55;;;;;;;1999.90;999.90;;;;;;;10.23;91.75;99988.28;8317342;28;20120;-76
2022/05/21 03:39:57;;;;;;;1999.90;999.90;;;;;;;10.19;91.73;99984.78;8313107;28;20128;-76
2022/05/21 03:43:58;;;;;;;1999.90;999.90;;;;;;;10.18;91.58;99995.16;8319688;28;20556;-75
2022/05/21 03:48:00;;;;;;;1999.90;999.90;;;;;;;10.12;91.67;99990.81;8296378;28;20157;-76
2022/05/21 03:52:02;;;;;;;1999.90;999.90;;;;;;;10.12;91.76;99989.94;8282094;28;20054;-76
2022/05/21 03:56:04;;;;;;;1999.90;999.90;;;;;;;10.10;92.08;99986.47;8287006;28;20492;-75
2022/05/21 04:00:10;;;;;;;1999.90;999.90;;;;;;;10.15;92.51;99992.56;8283320;28;20071;-76
2022/05/21 04:04:12;;;;;;;1999.90;999.90;;;;;;;10.18;92.84;100002.94;8303111;28;20529;-76
2022/05/21 04:08:15;;;;;;;1999.90;999.90;;;;;;;10.22;93.02;100002.13;8292179;28;20068;-75
2022/05/21 04:12:17;;;;;;;1999.90;999.90;;;;;;;10.24;92.42;99998.72;8306381;28;20120;-76
2022/05/21 04:16:19;;;;;;;1999.90;999.90;;;;;;;10.25;92.84;100003.06;8286481;28;20137;-76
2022/05/21 04:20:23;;;;;;;1999.90;999.90;;;;;;;10.27;93.15;100003.91;8271908;28;20045;-76
2022/05/21 04:24:24;;;;;;;1999.90;999.90;;;;;;;10.36;93.64;100003.09;8269985;28;20434;-76
2022/05/21 04:28:26;;;;;;;1999.90;999.90;;;;;;;10.51;93.69;100013.59;8268288;28;20042;-76
2022/05/21 04:32:27;;;;;;;1999.90;999.90;;;;;;;10.58;94.15;100014.47;8284899;28;20081;-76
2022/05/21 04:36:29;;;;;;;1999.90;999.90;;;;;;;10.68;94.25;100018.88;8293601;28;20442;-76
2022/05/21 04:40:31;;;;;;;1999.90;999.90;;;;;;;10.82;94.13;100017.22;8297315;28;20461;-76
2022/05/21 04:44:34;;;;;;;1999.90;999.90;;;;;;;10.97;94.25;100016.41;8314555;28;20052;-76
2022/05/21 04:48:35;;;;;;;1999.90;999.90;;;;;;;11.16;93.70;100032.94;8290101;28;20133;-76
2022/05/21 04:52:48;;;;;;;1999.90;999.90;;;;;;;11.38;92.72;100029.53;8284016;28;20050;-76
2022/05/21 04:56:49;;;;;;;1999.90;999.90;;;;;;;11.52;92.62;100028.72;8284227;28;20069;-76
2022/05/21 05:00:51;;;;;;;1999.90;999.90;;;;;;;11.66;91.81;100033.03;8284021;28;20054;-76
2022/05/21 05:04:52;;;;;;;1999.90;999.90;;;;;;;11.86;92.00;100029.66;8266464;28;20126;-76
2022/05/21 05:08:54;;;;;;;1999.90;999.90;;;;;;;12.03;91.54;100020.13;8287041;28;20137;-76
2022/05/21 05:12:55;;;;;;;1999.90;999.90;;;;;;;12.27;90.43;100030.50;8263549;28;20085;-76
2022/05/21 05:16:57;;;;;;;1999.90;999.90;;;;;;;12.49;90.13;100028.72;8291013;28;20084;-75
2022/05/21 05:20:58;;;;;;;1999.90;999.90;;;;;;;12.67;89.23;100025.22;8305581;28;20045;-76
2022/05/21 05:25:02;;;;;;;1999.90;999.90;;;;;;;12.85;86.60;100035.59;8308529;28;20068;-76
2022/05/21 05:29:05;;;;;;;1999.90;999.90;;;;;;;13.18;84.99;100037.22;8304626;28;20074;-76
2022/05/21 05:33:07;;;;;;;;;;;;;;;13.35;83.30;100042.38;8272378;28;20054;-76
2022/05/21 05:37:08;;;;;;;1999.90;999.90;;;;;;;13.75;82.15;100027.31;8281896;28;19941;-76
2022/05/21 05:41:09;;;;;;;1999.90;999.90;;;;;;;13.82;81.47;100034.25;8270259;28;20052;-76
2022/05/21 05:45:16;;;;;;;1999.90;999.90;;;;;;;13.95;79.95;100032.41;8266621;28;20052;-76
2022/05/21 05:49:18;;;;;;;1999.90;999.90;;;;;;;14.27;78.80;100039.97;8263034;28;20156;-76
2022/05/21 05:53:19;;;;;;;1999.90;999.90;;;;;;;14.58;78.37;100030.13;8286707;28;20137;-76
2022/05/21 05:57:21;;;;;;;1999.90;999.90;;;;;;;15.20;77.09;100022.41;8258906;28;20141;-76
2022/05/21 06:01:23;;;;;;;1999.90;999.90;;;;;;;15.60;74.69;100025.38;8259291;28;20056;-76
2022/05/21 06:05:28;;;;;;;1999.90;999.90;;;;;;;16.20;71.89;100023.56;8282106;28;20155;-76
2022/05/21 06:09:29;;;;;;;1999.90;999.90;;;;;;;16.77;69.54;100025.16;8285441;28;20042;-76
2022/05/21 06:13:31;;;;;;;1999.90;999.90;;;;;;;17.39;67.04;100025.63;8287629;28;20125;-77
2022/05/21 06:17:32;;;;;;;1999.90;999.90;;;;;;;17.59;65.19;100025.16;8288772;28;20510;-76
2022/05/21 06:21:34;;;;;;;1999.90;999.90;;;;;;;17.57;65.74;100024.34;8273717;28;20057;-76
2022/05/21 06:25:36;;;;;;;1999.90;999.90;;;;;;;17.86;64.20;100035.06;8280659;28;20036;-77
2022/05/21 06:29:37;;;;;;;1999.90;999.90;;;;;;;18.16;64.28;100037.88;8264614;28;20461;-76
2022/05/21 06:33:38;;;;;;;1999.90;999.90;;;;;;;18.52;62.95;100038.69;8269356;28;20053;-76
2022/05/21 06:37:40;;;;;;;1999.90;999.90;;;;;;;18.84;62.32;100027.31;8270401;28;20048;-76
2022/05/21 06:41:41;;;;;;;1999.90;999.90;;;;;;;18.82;59.68;100027.34;8290091;28;20052;-76
2022/05/21 06:45:43;;;;;;;1999.90;999.90;;;;;;;19.11;60.38;100028.31;8287614;28;20069;-77
2022/05/21 06:49:44;;;;;;;1999.90;999.90;;;;;;;19.15;60.74;100029.94;8289103;28;20411;-77
2022/05/21 06:53:46;;;;;;;1999.90;999.90;;;;;;;19.22;59.72;100032.34;8290438;28;20049;-77
2022/05/21 06:57:48;;;;;;;;;;;;;;;19.15;58.30;100029.94;8287662;28;20046;-77
2022/05/21 07:01:50;;;;;;;1999.90;999.90;;;;;;;19.30;59.83;100032.13;8279697;28;20026;-77
2022/05/21 07:10:19;;;;;;;1999.90;999.90;;;;;;;19.65;59.43;100033.72;8319054;28;20105;-76
2022/05/21 07:14:20;;;;;;;1999.90;999.90;;;;;;;19.48;59.68;100039.47;8309187;28;20047;-76
2022/05/21 07:18:25;;;;;;;1999.90;999.90;;;;;;;19.31;59.45;100044.38;8312242;28;20540;-77
2022/05/21 07:22:26;;;;;;;1999.90;999.90;;;;;;;18.97;58.94;100049.75;8314723;28;20051;-76
2022/05/21 07:26:28;;;;;;;1999.90;999.90;;;;;;;18.71;59.32;100047.84;8317084;28;20048;-76
2022/05/21 07:30:30;;;;;;;1999.90;999.90;;;;;;;18.42;59.60;100043.31;8313534;28;20041;-76
2022/05/21 07:34:31;;;;;;;1999.90;999.90;;;;;;;18.26;60.58;100044.59;8301023;28;20069;-76
2022/05/21 07:38:33;;;;;;;1999.90;999.90;;;;;;;18.01;61.39;100039.97;8319064;28;20056;-78
2022/05/21 07:42:37;;;;;;;1999.90;999.90;;;;;;;18.23;60.00;100044.69;8302615;28;20056;-78
2022/05/21 07:46:41;;;;;;;1999.90;999.90;;;;;;;18.31;60.31;100037.47;8285074;28;20140;-78
2022/05/21 07:50:46;;;;;;;1999.90;999.90;;;;;;;18.91;59.08;100036.78;8291492;28;20080;-78
2022/05/21 07:54:49;;;;;;;1999.90;999.90;;;;;;;18.74;58.25;100044.28;8282306;28;20415;-78
2022/05/21 07:58:53;;;;;;;1999.90;999.90;;;;;;;19.07;58.63;100039.84;8289152;28;20328;-77
2022/05/21 08:02:55;;;;;;;1999.90;999.90;;;;;;;18.72;58.34;100039.06;8285948;28;20065;-78
2022/05/21 08:07:00;;;;;;;1999.90;999.90;;;;;;;18.54;59.19;100036.88;8288091;28;20707;-77
2022/05/21 08:11:07;;;;;;;1999.90;999.90;;;;;;;18.20;60.14;100042.16;8278233;28;20057;-77
2022/05/21 08:15:09;;;;;;;1999.90;999.90;;;;;;;17.87;59.76;100039.44;8256301;28;20088;-78
2022/05/21 08:19:14;;;;;;;1999.90;999.90;;;;;;;18.41;58.59;100031.06;8303160;28;20156;-78
2022/05/21 08:27:38;;;;;;;1999.90;999.90;;;;;;;19.39;56.13;100031.84;8291171;28;20833;-77
2022/05/21 08:31:40;;;;;;;1999.90;999.90;;;;;;;19.19;56.33;100032.44;8291868;28;20056;-78
2022/05/21 08:35:42;;;;;;;1999.90;999.90;;;;;;;19.15;57.63;100032.56;8316949;28;20693;-77
2022/05/21 08:39:44;;;;;;;1999.90;999.90;;;;;;;19.04;56.76;100022.38;8320428;28;20445;-77
2022/05/21 08:43:54;;;;;;;;;;;;;;;19.50;55.12;100027.09;8314866;28;20191;-77
2022/05/21 08:48:02;;;;;;;1999.90;999.90;;;;;;;20.11;54.36;100025.19;8292584;28;19975;-77
2022/05/21 08:52:14;;;;;;;1999.90;999.90;;;;;;;20.43;52.83;100025.91;8282719;28;20568;-77
2022/05/21 08:56:19;;;;;;;1999.90;999.90;;;;;;;20.45;50.23;100024.94;8278889;28;20076;-77
2022/05/21 09:00:26;;;;;;;1999.90;999.90;;;;;;;20.41;50.58;100012.75;8281880;28;20499;-77
2022/05/21 09:04:30;;;;;;;1999.90;999.90;;;;;;;20.71;49.83;100005.56;8300289;28;20409;-77
2022/05/21 09:08:59;;;;;;;1999.90;999.90;;;;;;;21.01;48.96;100005.34;8284764;28;20632;-78
2022/05/21 09:13:16;;;;;;;1999.90;999.90;;;;;;;20.83;50.38;100013.97;8298086;28;20053;-78
2022/05/21 09:17:24;;;;;;;1999.90;999.90;;;;;;;20.80;50.07;99991.16;8279994;28;20088;-78
2022/05/21 09:21:27;;;;;;;1999.90;999.90;;;;;;;20.67;50.24;99995.16;8283050;28;20037;-78
2022/05/21 09:25:32;;;;;;;1999.90;999.90;;;;;;;20.44;50.61;99990.69;8251814;28;20156;-78
2022/05/21 09:29:35;;;;;;;;;;;;;;;20.66;50.10;99983.75;8267649;28;20141;-78
2022/05/21 09:33:42;;;;;;;1999.90;999.90;;;;;;;20.96;48.35;99976.47;8264858;28;20330;-78
2022/05/21 09:37:45;;;;;;;1999.90;999.90;;;;;;;20.91;47.37;99975.78;8286493;28;20053;-78
2022/05/21 09:41:50;;;;;;;1999.90;999.90;;;;;;;20.57;49.05;99980.56;8266438;28;20042;-78
2022/05/21 09:46:21;;;;;;;1999.90;999.90;;;;;;;20.37;50.81;99983.88;8272077;28;20725;-78
2022/05/21 09:50:30;;;;;;;1999.90;999.90;;;;;;;20.59;50.67;99978.72;8274362;28;20099;-77
2022/05/21 09:54:40;;;;;;;1999.90;999.90;;;;;;;20.90;48.16;99983.75;8259341;28;20089;-78
2022/05/21 09:59:09;;;;;;;1999.90;999.90;;;;;;;21.12;47.64;99980.25;8275878;28;20057;-77
2022/05/21 10:03:12;;;;;;;1999.90;999.90;;;;;;;21.56;47.24;99977.69;8294503;28;20099;-77
2022/05/21 10:12:16;;;;;;;1999.90;999.90;;;;;;;21.51;44.98;99968.22;8313213;28;20004;-77
2022/05/21 10:16:43;;;;;;;1999.90;999.90;;;;;;;21.37;45.66;99964.34;8307730;28;20060;-77
2022/05/21 10:20:51;;;;;;;1999.90;999.90;;;;;;;20.98;47.92;99971.97;8313498;28;20111;-77
2022/05/21 10:25:05;;;;;;;1999.90;999.90;;;;;;;21.01;46.83;99973.66;8310357;28;20117;-77
2022/05/21 10:29:14;;;;;;;1999.90;999.90;;;;;;;21.38;47.22;99966.09;8303040;28;20737;-77
2022/05/21 10:33:40;;;;;;;1999.90;999.90;;;;;;;21.87;46.34;99963.22;8311665;28;20077;-77
2022/05/21 10:38:09;;;;;;;1999.90;999.90;;;;;;;21.81;45.04;99961.69;8307331;28;20063;-77
2022/05/21 10:42:26;;;;;;;1999.90;999.90;;;;;;;22.00;44.77;99961.78;8302123;28;20042;-77
2022/05/21 10:47:04;;;;;;;1999.90;999.90;;;;;;;22.10;44.76;99962.31;8311215;28;20200;-76
2022/05/21 10:51:23;;;;;;;1999.90;999.90;;;;;;;22.45;42.95;99959.00;8321796;28;20056;-77
2022/05/21 10:55:38;;;;;;;1999.90;999.90;;;;;;;22.40;43.20;99958.31;8310078;28;20076;-77
2022/05/21 10:59:53;;;;;;;1999.90;999.90;;;;;;;22.02;43.69;99952.00;8320887;28;20069;-76
2022/05/21 11:04:01;;;;;;;1999.90;999.90;;;;;;;22.12;43.06;99944.59;8316356;28;20058;-77
2022/05/21 11:08:31;;;;;;;1999.90;999.90;;;;;;;22.19;43.01;99948.66;8321107;28;20450;-77
2022/05/21 11:12:43;;;;;;;1999.90;999.90;;;;;;;22.48;43.55;99942.97;8318342;28;20409;-77
2022/05/21 11:17:09;;;;;;;1999.90;999.90;;;;;;;22.74;39.63;99938.28;8291488;28;20177;-77
2022/05/21 11:21:44;;;;;;;1999.90;999.90;;;;;;;22.88;41.07;99944.72;8313610;28;20551;-77
2022/05/21 11:25:55;;;;;;;1999.90;999.90;;;;;;;22.92;41.34;99940.97;8324549;28;20478;-77
2022/05/21 11:30:10;;;;;;;1999.90;999.90;;;;;;;23.10;40.97;99936.63;8313901;28;20132;-77
2022/05/21 11:38:58;;;;;;;1999.90;999.90;;;;;;;23.39;41.94;99924.63;8294558;28;20045;-77
2022/05/21 11:42:59;;;;;;;1999.90;999.90;;;;;;;23.59;41.67;99930.78;8289824;28;20061;-76
2022/05/21 11:47:30;;;;;;;1999.90;999.90;;;;;;;23.66;39.60;99937.50;8284301;28;20357;-77
2022/05/21 11:51:34;;;;;;;1999.90;999.90;;;;;;;23.75;38.83;99937.06;8281807;28;20058;-76
2022/05/21 11:56:08;;;;;;;1999.90;999.90;;;;;;;23.71;41.19;99924.88;8262775;28;20152;-76
2022/05/21 12:00:29;;;;;;;1999.90;999.90;;;;;;;23.58;39.19;99919.31;8283643;28;20085;-76
2022/05/21 12:04:57;;;;;;;1999.90;999.90;;;;;;;23.60;39.68;99913.94;8245750;28;20144;-76
2022/05/21 12:09:27;;;;;;;1999.90;999.90;;;;;;;23.90;40.96;99919.50;8249062;28;20684;-76
2022/05/21 12:13:34;;;;;;;1999.90;999.90;;;;;;;24.19;40.15;99921.50;8251717;28;20121;-76
2022/05/21 12:17:52;;;;;;;1999.90;999.90;;;;;;;24.42;39.74;99909.75;8251866;28;20047;-76
2022/05/21 12:21:53;;;;;;;1999.90;999.90;;;;;;;24.35;36.45;99906.53;8228504;28;20735;-77
2022/05/21 12:25:57;;;;;;;;;;;;;;;23.72;37.25;99900.09;8251819;28;20074;-77
2022/05/21 12:30:25;;;;;;;1999.90;999.90;;;;;;;23.62;38.74;99902.31;8234254;28;19933;-76
2022/05/21 12:34:46;;;;;;;1999.90;999.90;;;;;;;23.61;40.53;99907.69;8249081;28;20064;-77
2022/05/21 12:39:03;;;;;;;1999.90;999.90;;;;;;;23.55;41.62;99895.59;8290635;28;20064;-76
2022/05/21 12:43:14;;;;;;;1999.90;999.90;;;;;;;23.99;41.14;99888.06;8310311;28;20045;-77
2022/05/21 12:47:27;;;;;;;1999.90;999.90;;;;;;;24.09;38.90;99888.44;8286819;28;20049;-76
2022/05/21 12:51:35;;;;;;;1999.90;999.90;;;;;;;24.15;39.50;99884.59;8257741;28;20038;-76
2022/05/21 12:55:41;;;;;;;1999.90;999.90;;;;;;;24.36;39.57;99879.06;8272902;28;20085;-76
2022/05/21 12:59:43;;;;;;;1999.90;999.90;;;;;;;24.60;37.70;99868.94;8273342;28;20052;-76
2022/05/21 13:03:45;;;;;;;1999.90;999.90;;;;;;;24.31;38.01;99870.47;8297486;28;20068;-76
2022/05/21 13:07:47;;;;;;;;;;;;;;;24.37;38.89;99866.63;8287147;28;20168;-76
2022/05/21 13:11:50;;;;;;;1999.90;999.90;;;;;;;24.38;38.49;99865.69;8303367;28;20352;-76
2022/05/21 13:15:57;;;;;;;1999.90;999.90;;;;;;;24.48;39.06;99868.72;8307379;28;20148;-76
2022/05/21 13:20:10;;;;;;;1999.90;999.90;;;;;;;24.33;39.17;99865.09;8315382;28;20401;-76
2022/05/21 13:24:32;;;;;;;1999.90;999.90;;;;;;;23.99;38.67;99855.34;8317243;28;20045;-76
2022/05/21 13:28:34;;;;;;;1999.90;999.90;;;;;;;23.59;38.26;99851.25;8313561;28;20145;-76
2022/05/21 13:32:36;;;;;;;1999.90;999.90;;;;;;;23.08;38.26;99844.91;8292120;28;20050;-76
2022/05/21 13:36:37;;;;;;;1999.90;999.90;;;;;;;23.04;40.60;99843.34;8283697;28;20074;-76
2022/05/21 13:40:59;;;;;;;1999.90;999.90;;;;;;;23.25;40.70;99847.59;8287419;28;20754;-77
2022/05/21 13:45:09;;;;;;;1999.90;999.90;;;;;;;23.25;39.86;99836.13;8287200;28;20046;-76
2022/05/21 13:49:26;;;;;;;1999.90;999.90;;;;;;;23.04;40.93;99835.38;8321831;28;20059;-76
2022/05/21 13:53:31;;;;;;;1999.90;999.90;;;;;;;22.82;40.90;99825.84;8321676;28;20046;-76
2022/05/21 13:57:34;;;;;;;1999.90;999.90;;;;;;;22.61;41.27;99826.78;8320544;28;20053;-76
2022/05/21 14:01:38;;;;;;;1999.90;999.90;;;;;;;22.65;39.75;99827.53;8307589;28;20069;-76
2022/05/21 14:05:51;;;;;;;1999.90;999.90;;;;;;;23.11;41.33;99816.47;8318461;28;20461;-76
2022/05/21 14:09:59;;;;;;;1999.90;999.90;;;;;;;23.69;39.75;99805.59;8317035;28;20096;-75
2022/05/21 14:14:10;;;;;;;1999.90;999.90;;;;;;;24.22;39.21;99809.88;8294515;28;20695;-77
2022/05/21 14:18:27;;;;;;;1999.90;999.90;;;;;;;24.46;36.63;99786.50;8284379;28;20593;-76
2022/05/21 14:22:34;;;;;;;1999.90;999.90;;;;;;;24.60;37.50;99786.59;8277735;28;20052;-76
2022/05/21 14:26:36;;;;;;;1999.90;999.90;;;;;;;24.82;38.21;99774.78;8276441;28;20045;-74
2022/05/21 14:30:39;;;;;;;;;;;;;;;24.66;36.25;99772.97;8243694;28;20046;-77
2022/05/21 14:34:43;;;;;;;1999.90;999.90;;;;;;;24.75;35.96;99773.38;8278243;28;19929;-77
2022/05/21 14:38:45;;;;;;;1999.90;999.90;;;;;;;24.65;35.75;99759.78;8260526;28;20092;-77
2022/05/21 14:42:49;;;;;;;1999.90;999.90;;;;;;;24.55;36.08;99755.91;8278265;28;20042;-77
2022/05/21 14:55:44;;;;;;;1999.90;999.90;;;;;;;24.83;37.11;99736.63;8229674;28;20070;-76
2022/05/21 14:59:49;;;;;;;1999.90;999.90;;;;;;;24.88;36.93;99727.44;8253551;28;20491;-76
2022/05/21 15:03:53;;;;;;;1999.90;999.90;;;;;;;24.87;36.46;99720.41;8220371;28;20060;-76
2022/05/21 15:07:59;;;;;;;1999.90;999.90;;;;;;;24.84;35.64;99717.09;8251204;28;20049;-76
2022/05/21 15:12:01;;;;;;;1999.90;999.90;;;;;;;24.92;36.15;99714.84;8237301;28;20053;-76
2022/05/21 15:16:04;;;;;;;1999.90;999.90;;;;;;;24.97;35.13;99704.81;8216709;28;20443;-76
2022/05/21 15:20:06;;;;;;;1999.90;999.90;;;;;;;25.17;36.58;99708.97;8253127;28;20046;-76
2022/05/21 15:24:08;;;;;;;1999.90;999.90;;;;;;;25.14;34.94;99694.09;8253490;28;20088;-75
2022/05/21 15:28:13;;;;;;;;;;;;;;;25.21;34.58;99694.56;8253503;28;20048;-76
2022/05/21 15:32:15;;;;;;;1999.90;999.90;;;;;;;25.30;35.36;99694.84;8248975;28;19952;-75
2022/05/21 15:36:19;;;;;;;1999.90;999.90;;;;;;;24.98;35.12;99685.28;8279822;28;20062;-76
2022/05/21 15:40:22;;;;;;;1999.90;999.90;;;;;;;24.88;35.83;99694.72;8266410;28;20128;-75
2022/05/21 15:44:24;;;;;;;1999.90;999.90;;;;;;;24.80;37.23;99692.50;8281827;28;20041;-75
2022/05/21 15:48:25;;;;;;;1999.90;999.90;;;;;;;24.82;36.89;99692.44;8279093;28;20045;-75
2022/05/21 15:52:35;;;;;;;1999.90;999.90;;;;;;;24.69;36.46;99682.50;8283391;28;20552;-76
2022/05/21 15:56:40;;;;;;;1999.90;999.90;;;;;;;24.59;38.33;99683.09;8282314;28;20060;-76
2022/05/21 16:00:54;;;;;;;1999.90;999.90;;;;;;;24.51;36.38;99685.34;8243199;28;20058;-76
2022/05/21 16:04:56;;;;;;;1999.90;999.90;;;;;;;24.44;37.68;99670.72;8262512;28;20045;-76
2022/05/21 16:08:57;;;;;;;;;;;;;;;24.43;38.40;99671.66;8286192;28;20065;-75
2022/05/21 16:13:02;;;;;;;1999.90;999.90;;;;;;;24.41;37.22;99659.31;8270673;28;20484;-75
2022/05/21 16:17:10;;;;;;;1999.90;999.90;;;;;;;24.36;37.54;99658.72;8311306;28;20525;-76
2022/05/21 16:21:16;;;;;;;1999.90;999.90;;;;;;;24.22;37.44;99669.22;8315046;28;20056;-75
2022/05/21 16:25:20;;;;;;;1999.90;999.90;;;;;;;23.96;37.81;99651.25;8309631;28;20827;-75
2022/05/21 16:29:23;;;;;;;1999.90;999.90;;;;;;;23.67;39.18;99651.03;8308513;28;20129;-74
2022/05/21 16:33:25;;;;;;;1999.90;999.90;;;;;;;23.40;39.84;99649.84;8308215;28;20078;-74
2022/05/21 16:37:27;;;;;;;1999.90;999.90;;;;;;;23.18;40.66;99643.03;8311675;28;20984;-75
2022/05/21 16:41:28;;;;;;;1999.90;999.90;;;;;;;23.01;40.87;99647.47;8311992;28;20128;-75
2022/05/21 16:45:32;;;;;;;1999.90;999.90;;;;;;;22.76;41.85;99632.78;8288239;28;20041;-75
2022/05/21 16:49:35;;;;;;;1999.90;999.90;;;;;;;22.61;41.08;99634.41;8274984;28;20038;-75
2022/05/21 16:53:38;;;;;;;1999.90;999.90;;;;;;;22.48;42.54;99620.09;8243361;28;20052;-75
2022/05/21 16:57:40;;;;;;;1999.90;999.90;;;;;;;22.30;40.98;99615.72;8263535;28;20362;-75
2022/05/21 17:01:46;;;;;;;1999.90;999.90;;;;;;;22.07;40.24;99616.78;8283566;28;20041;-75
2022/05/21 17:05:48;;;;;;;1999.90;999.90;;;;;;;21.89;41.97;99615.00;8286536;28;20085;-75
2022/05/21 17:09:50;;;;;;;1999.90;999.90;;;;;;;21.74;43.05;99616.59;8274122;28;20042;-74
2022/05/21 17:13:53;;;;;;;1999.90;999.90;;;;;;;21.60;43.88;99605.78;8285469;28;20054;-75
2022/05/21 17:17:55;;;;;;;1999.90;999.90;;;;;;;21.53;45.49;99604.34;8268032;28;20077;-74
2022/05/21 17:22:03;;;;;;;1999.90;999.90;;;;;;;21.40;45.96;99599.63;8266798;28;20073;-74
2022/05/21 17:26:04;;;;;;;1999.90;999.90;;;;;;;21.24;46.57;99595.97;8275085;28;20074;-74
2022/05/21 17:34:28;;;;;;;;;;;;;;;20.92;44.91;99594.69;8264930;28;20603;-75
2022/05/21 17:38:29;;;;;;;1999.90;999.90;;;;;;;20.81;47.24;99595.16;8240480;28;19926;-75
2022/05/21 17:42:35;;;;;;;1999.90;999.90;;;;;;;20.65;47.57;99590.63;8247530;28;20125;-75
2022/05/21 17:46:39;;;;;;;1999.90;999.90;;;;;;;20.42;49.92;99589.78;8226968;28;20051;-75
2022/05/21 17:50:43;;;;;;;1999.90;999.90;;;;;;;20.27;49.90;99589.50;8252597;28;20158;-75
2022/05/21 17:54:47;;;;;;;1999.90;999.90;;;;;;;20.07;50.09;99592.97;8235359;28;20160;-74
2022/05/21 17:58:50;;;;;;;1999.90;999.90;;;;;;;19.95;49.79;99598.75;8255978;28;20048;-74
2022/05/21 18:02:53;;;;;;;1999.90;999.90;;;;;;;19.73;52.76;99596.06;8252072;28;20046;-74
2022/05/21 18:06:55;;;;;;;1999.90;999.90;;;;;;;19.51;54.36;99590.72;8231328;28;20054;-74
2022/05/21 18:10:57;;;;;;;1999.90;999.90;;;;;;;19.32;55.01;99590.53;8248885;28;20073;-74
2022/05/21 18:14:59;;;;;;;1999.90;999.90;;;;;;;19.06;57.79;99588.00;8255649;28;20046;-73
2022/05/21 18:19:19;;;;;;;1999.90;999.90;;;;;;;18.85;60.17;99581.72;8265343;28;20053;-74
2022/05/21 18:23:20;;;;;;;1999.90;999.90;;;;;;;18.60;61.88;99579.91;8250995;28;20038;-73
2022/05/21 18:27:22;;;;;;;1999.90;999.90;;;;;;;18.41;61.90;99573.56;8250719;28;20092;-74
2022/05/21 18:31:31;;;;;;;1999.90;999.90;;;;;;;18.18;62.50;99579.56;8261574;28;20085;-75
2022/05/21 18:35:32;;;;;;;1999.90;999.90;;;;;;;17.95;63.60;99572.41;8267355;28;20378;-74
2022/05/21 18:39:34;;;;;;;1999.90;999.90;;;;;;;17.71;63.73;99575.78;8264919;28;20066;-74
2022/05/21 18:43:39;;;;;;;1999.90;999.90;;;;;;;17.48;64.96;99569.44;8255996;28;20422;-74